createdAt,value
2017-09-28T00:00:03.746Z,0
2017-09-28T00:01:05.139Z,0
2017-09-28T00:02:06.527Z,0
2017-09-28T00:03:07.917Z,0
2017-09-28T00:04:09.314Z,0
2017-09-28T00:05:10.703Z,0
2017-09-28T00:06:12.108Z,0
2017-09-28T00:07:13.498Z,0
2017-09-28T00:08:14.893Z,0
2017-09-28T00:09:16.282Z,0
2017-09-28T00:10:17.675Z,0
2017-09-28T00:11:19.071Z,0
2017-09-28T00:12:20.459Z,0
2017-09-28T00:13:21.850Z,0
2017-09-28T00:14:23.235Z,0
2017-09-28T00:15:24.629Z,0
2017-09-28T00:16:26.023Z,0
2017-09-28T00:17:27.416Z,0
2017-09-28T00:18:28.805Z,0
2017-09-28T00:19:30.194Z,0
2017-09-28T00:20:31.584Z,0
2017-09-28T00:21:32.972Z,0
2017-09-28T00:22:34.366Z,0
2017-09-28T00:23:35.757Z,0
2017-09-28T00:24:37.150Z,0
2017-09-28T00:25:38.545Z,0
2017-09-28T00:26:39.930Z,0
2017-09-28T00:27:41.320Z,0
2017-09-28T00:28:42.709Z,0
2017-09-28T00:29:44.100Z,0
2017-09-28T00:30:45.492Z,0
2017-09-28T00:31:46.883Z,0
2017-09-28T00:32:48.272Z,0
2017-09-28T00:33:49.662Z,0
2017-09-28T00:34:51.051Z,0
2017-09-28T00:35:52.438Z,0
2017-09-28T00:36:53.830Z,0
2017-09-28T00:37:55.221Z,0
2017-09-28T00:38:56.615Z,0
2017-09-28T00:39:58.003Z,0
2017-09-28T00:40:59.391Z,0
2017-09-28T00:42:00.781Z,0
2017-09-28T00:43:02.173Z,0
2017-09-28T00:44:03.562Z,0
2017-09-28T00:45:04.954Z,0
2017-09-28T00:46:06.347Z,0
2017-09-28T00:47:07.736Z,0
2017-09-28T00:48:09.127Z,0
2017-09-28T00:49:10.514Z,0
2017-09-28T00:50:11.903Z,0
2017-09-28T00:51:13.297Z,0
2017-09-28T00:52:14.683Z,0
2017-09-28T00:53:16.077Z,0
2017-09-28T00:54:17.513Z,0
2017-09-28T00:55:18.862Z,0
2017-09-28T00:56:20.253Z,0
2017-09-28T00:57:21.645Z,0
2017-09-28T00:58:23.035Z,0
2017-09-28T00:59:24.426Z,0
2017-09-28T01:00:25.816Z,0
2017-09-28T01:01:27.209Z,0
2017-09-28T01:02:28.597Z,0
2017-09-28T01:03:29.988Z,0
2017-09-28T01:04:31.375Z,0
2017-09-28T01:05:32.764Z,0
2017-09-28T01:06:34.153Z,0
2017-09-28T01:07:35.556Z,0
2017-09-28T01:08:36.952Z,0
2017-09-28T01:09:38.344Z,0
2017-09-28T01:10:39.731Z,0
2017-09-28T01:11:41.123Z,0
2017-09-28T01:12:42.510Z,0
2017-09-28T01:13:43.900Z,0
2017-09-28T01:14:45.292Z,0
2017-09-28T01:15:46.683Z,0
2017-09-28T01:16:48.072Z,0
2017-09-28T01:17:49.460Z,0
2017-09-28T01:18:50.851Z,0
2017-09-28T01:19:52.241Z,0
2017-09-28T01:20:53.631Z,0
2017-09-28T01:21:55.024Z,0
2017-09-28T01:22:56.416Z,0
2017-09-28T01:23:57.804Z,0
2017-09-28T01:24:59.192Z,0
2017-09-28T01:26:00.581Z,0
2017-09-28T01:27:01.976Z,0
2017-09-28T01:28:03.367Z,0
2017-09-28T01:29:04.761Z,0
2017-09-28T01:30:06.168Z,0
2017-09-28T01:31:07.557Z,0
2017-09-28T01:32:08.945Z,0
2017-09-28T01:33:10.333Z,0
2017-09-28T01:34:11.723Z,0
2017-09-28T01:35:13.116Z,0
2017-09-28T01:36:14.508Z,0
2017-09-28T01:37:15.901Z,0
2017-09-28T01:38:17.294Z,0
2017-09-28T01:39:18.681Z,0
2017-09-28T01:40:20.069Z,0
2017-09-28T01:41:21.458Z,0
2017-09-28T01:42:22.847Z,0
2017-09-28T01:43:24.251Z,0
2017-09-28T01:44:25.644Z,0
2017-09-28T01:45:27.034Z,0
2017-09-28T01:46:28.424Z,0
2017-09-28T01:47:29.815Z,0
2017-09-28T01:48:31.205Z,0
2017-09-28T01:49:32.599Z,0
2017-09-28T01:50:33.992Z,0
2017-09-28T01:51:35.384Z,0
2017-09-28T01:52:36.768Z,0
2017-09-28T01:53:38.159Z,0
2017-09-28T01:54:39.547Z,0
2017-09-28T01:55:40.935Z,0
2017-09-28T01:56:42.333Z,0
2017-09-28T01:57:43.722Z,0
2017-09-28T01:58:45.116Z,0
2017-09-28T01:59:46.509Z,0
2017-09-28T02:00:47.892Z,0
2017-09-28T02:01:49.281Z,0
2017-09-28T02:02:50.672Z,0
2017-09-28T02:03:52.061Z,0
2017-09-28T02:04:53.455Z,0
2017-09-28T02:05:54.843Z,0
2017-09-28T02:06:56.230Z,0
2017-09-28T02:07:57.621Z,0
2017-09-28T02:08:59.010Z,0
2017-09-28T02:10:00.401Z,0
2017-09-28T02:11:01.791Z,0
2017-09-28T02:12:03.183Z,0
2017-09-28T02:13:04.570Z,0
2017-09-28T02:14:05.962Z,0
2017-09-28T02:15:07.349Z,0
2017-09-28T02:16:08.740Z,0
2017-09-28T02:17:10.134Z,0
2017-09-28T02:18:11.523Z,0
2017-09-28T02:19:12.915Z,0
2017-09-28T02:20:14.311Z,0
2017-09-28T02:21:15.698Z,0
2017-09-28T02:22:17.089Z,0
2017-09-28T02:23:18.477Z,0
2017-09-28T02:24:19.869Z,0
2017-09-28T02:25:21.259Z,0
2017-09-28T02:26:22.650Z,0
2017-09-28T02:27:24.046Z,0
2017-09-28T02:28:25.459Z,0
2017-09-28T02:29:26.822Z,0
2017-09-28T02:30:28.210Z,0
2017-09-28T02:31:29.599Z,0
2017-09-28T02:32:30.996Z,0
2017-09-28T02:33:32.389Z,0
2017-09-28T02:34:33.781Z,0
2017-09-28T02:35:35.209Z,0
2017-09-28T02:36:36.600Z,0
2017-09-28T02:37:37.991Z,0
2017-09-28T02:38:39.386Z,0
2017-09-28T02:39:40.773Z,0
2017-09-28T02:40:42.163Z,0
2017-09-28T02:41:43.555Z,0
2017-09-28T02:42:44.943Z,0
2017-09-28T02:43:46.350Z,0
2017-09-28T02:44:47.743Z,0
2017-09-28T02:45:49.129Z,0
2017-09-28T02:46:50.519Z,0
2017-09-28T02:47:51.911Z,0
2017-09-28T02:48:53.304Z,0
2017-09-28T02:49:54.694Z,0
2017-09-28T02:50:56.082Z,0
2017-09-28T02:51:57.473Z,0
2017-09-28T02:52:58.864Z,0
2017-09-28T02:54:00.255Z,0
2017-09-28T02:55:01.646Z,0
2017-09-28T02:56:03.040Z,0
2017-09-28T02:57:05.616Z,0
2017-09-28T02:58:07.003Z,0
2017-09-28T02:59:08.392Z,0
2017-09-28T03:00:09.780Z,0
2017-09-28T03:01:11.172Z,0
2017-09-28T03:02:12.565Z,0
2017-09-28T03:03:13.955Z,0
2017-09-28T03:04:15.344Z,0
2017-09-28T03:05:16.731Z,0
2017-09-28T03:06:18.120Z,0
2017-09-28T03:07:19.512Z,0
2017-09-28T03:08:20.906Z,0
2017-09-28T03:09:22.294Z,0
2017-09-28T03:10:23.686Z,0
2017-09-28T03:11:25.072Z,0
2017-09-28T03:12:26.463Z,0
2017-09-28T03:13:27.856Z,0
2017-09-28T03:14:29.246Z,0
2017-09-28T03:15:30.634Z,0
2017-09-28T03:16:32.027Z,0
2017-09-28T03:17:33.421Z,0
2017-09-28T03:18:34.810Z,0
2017-09-28T03:19:36.201Z,0
2017-09-28T03:20:37.593Z,0
2017-09-28T03:21:38.995Z,0
2017-09-28T03:22:40.374Z,0
2017-09-28T03:23:41.767Z,0
2017-09-28T03:24:43.157Z,0
2017-09-28T03:25:44.545Z,0
2017-09-28T03:26:45.936Z,0
2017-09-28T03:27:47.328Z,0
2017-09-28T03:28:48.719Z,0
2017-09-28T03:29:50.110Z,0
2017-09-28T03:30:51.502Z,0
2017-09-28T03:31:52.893Z,0
2017-09-28T03:32:54.282Z,0
2017-09-28T03:33:55.673Z,0
2017-09-28T03:34:57.060Z,0
2017-09-28T03:35:58.453Z,0
2017-09-28T03:36:59.845Z,0
2017-09-28T03:38:01.236Z,0
2017-09-28T03:39:02.629Z,0
2017-09-28T03:40:04.016Z,0
2017-09-28T03:41:05.406Z,0
2017-09-28T03:42:06.795Z,0
2017-09-28T03:43:08.204Z,0
2017-09-28T03:44:09.593Z,0
2017-09-28T03:45:10.993Z,0
2017-09-28T03:46:12.379Z,0
2017-09-28T03:47:13.765Z,0
2017-09-28T03:48:15.156Z,0
2017-09-28T03:49:16.556Z,0
2017-09-28T03:50:17.944Z,0
2017-09-28T03:51:19.334Z,0
2017-09-28T03:52:20.726Z,0
2017-09-28T03:53:22.121Z,0
2017-09-28T03:54:23.508Z,0
2017-09-28T03:55:24.898Z,0
2017-09-28T03:56:26.289Z,0
2017-09-28T03:57:27.677Z,0
2017-09-28T03:58:29.069Z,0
2017-09-28T03:59:30.461Z,0
2017-09-28T04:00:31.850Z,0
2017-09-28T04:01:33.246Z,0
2017-09-28T04:02:34.628Z,0
2017-09-28T04:03:36.020Z,0
2017-09-28T04:04:37.410Z,0
2017-09-28T04:05:38.802Z,0
2017-09-28T04:06:40.194Z,0
2017-09-28T04:07:41.588Z,0
2017-09-28T04:08:42.978Z,0
2017-09-28T04:09:44.365Z,0
2017-09-28T04:10:45.759Z,0
2017-09-28T04:11:47.153Z,0
2017-09-28T04:12:48.575Z,0
2017-09-28T04:13:49.968Z,0
2017-09-28T04:14:51.357Z,0
2017-09-28T04:15:52.749Z,0
2017-09-28T04:16:54.136Z,0
2017-09-28T04:17:55.531Z,0
2017-09-28T04:18:56.915Z,0
2017-09-28T04:19:58.306Z,0
2017-09-28T04:20:59.698Z,0
2017-09-28T04:22:01.090Z,0
2017-09-28T04:23:02.478Z,0
2017-09-28T04:24:03.866Z,0
2017-09-28T04:25:05.254Z,0
2017-09-28T04:26:06.648Z,0
2017-09-28T04:27:08.043Z,0
2017-09-28T04:28:09.437Z,0
2017-09-28T04:29:10.828Z,0
2017-09-28T04:30:12.220Z,0
2017-09-28T04:31:13.613Z,0
2017-09-28T04:32:15.007Z,0
2017-09-28T04:33:16.396Z,0
2017-09-28T04:34:17.787Z,0
2017-09-28T04:35:19.182Z,0
2017-09-28T04:36:20.570Z,0
2017-09-28T04:37:21.961Z,0
2017-09-28T04:38:23.352Z,0
2017-09-28T04:39:24.740Z,0
2017-09-28T04:40:26.132Z,0
2017-09-28T04:41:27.521Z,0
2017-09-28T04:42:28.912Z,0
2017-09-28T04:43:30.304Z,0
2017-09-28T04:44:31.698Z,0
2017-09-28T04:45:33.084Z,0
2017-09-28T04:46:34.518Z,0
2017-09-28T04:47:35.910Z,0
2017-09-28T04:48:37.301Z,0
2017-09-28T04:49:38.693Z,0
2017-09-28T04:50:40.086Z,0
2017-09-28T04:51:41.472Z,0
2017-09-28T04:52:42.863Z,0
2017-09-28T04:53:44.255Z,0
2017-09-28T04:54:45.657Z,0
2017-09-28T04:55:47.051Z,0
2017-09-28T04:56:48.446Z,0
2017-09-28T04:57:49.838Z,0
2017-09-28T04:58:51.231Z,0
2017-09-28T04:59:52.618Z,0
2017-09-28T05:00:54.010Z,0
2017-09-28T05:01:55.401Z,0
2017-09-28T05:02:56.790Z,0
2017-09-28T05:03:58.183Z,0
2017-09-28T05:04:59.577Z,0
2017-09-28T05:06:00.969Z,0
2017-09-28T05:07:02.397Z,0
2017-09-28T05:08:03.785Z,4
2017-09-28T05:09:05.177Z,4
2017-09-28T05:10:06.571Z,0
2017-09-28T05:11:08.248Z,0
2017-09-28T05:12:09.630Z,0
2017-09-28T05:13:11.018Z,4
2017-09-28T05:14:12.409Z,4
2017-09-28T05:15:13.804Z,0
2017-09-28T05:16:15.192Z,4
2017-09-28T05:17:16.601Z,4
2017-09-28T05:18:18.792Z,4
2017-09-28T05:19:20.187Z,8
2017-09-28T05:20:21.577Z,4
2017-09-28T05:21:22.968Z,8
2017-09-28T05:22:24.360Z,12
2017-09-28T05:23:25.753Z,12
2017-09-28T05:24:27.142Z,12
2017-09-28T05:25:28.536Z,12
2017-09-28T05:26:29.932Z,16
2017-09-28T05:27:31.406Z,16
2017-09-28T05:28:33.001Z,20
2017-09-28T05:29:34.453Z,20
2017-09-28T05:30:35.846Z,24
2017-09-28T05:31:37.235Z,28
2017-09-28T05:32:38.630Z,28
2017-09-28T05:33:40.023Z,28
2017-09-28T05:34:43.557Z,36
2017-09-28T05:35:44.948Z,36
2017-09-28T05:36:46.359Z,40
2017-09-28T05:37:47.747Z,40
2017-09-28T05:38:49.141Z,44
2017-09-28T05:39:50.534Z,52
2017-09-28T05:40:51.927Z,60
2017-09-28T05:41:53.316Z,68
2017-09-28T05:42:54.707Z,84
2017-09-28T05:43:56.063Z,100
2017-09-28T05:44:57.461Z,112
2017-09-28T05:45:58.888Z,132
2017-09-28T05:47:00.280Z,152
2017-09-28T05:48:01.675Z,172
2017-09-28T05:49:03.064Z,192
2017-09-28T05:50:04.458Z,208
2017-09-28T05:51:05.855Z,220
2017-09-28T05:52:07.250Z,224
2017-09-28T05:53:08.644Z,232
2017-09-28T05:54:10.050Z,224
2017-09-28T05:55:11.447Z,220
2017-09-28T05:56:12.839Z,220
2017-09-28T05:57:14.231Z,216
2017-09-28T05:58:15.624Z,204
2017-09-28T05:59:17.017Z,184
2017-09-28T06:00:18.410Z,156
2017-09-28T06:01:19.803Z,136
2017-09-28T06:02:21.203Z,124
2017-09-28T06:03:22.595Z,120
2017-09-28T06:04:23.984Z,116
2017-09-28T06:05:25.376Z,108
2017-09-28T06:06:26.772Z,104
2017-09-28T06:07:28.164Z,100
2017-09-28T06:08:29.560Z,100
2017-09-28T06:09:30.953Z,100
2017-09-28T06:10:32.341Z,100
2017-09-28T06:11:33.733Z,92
2017-09-28T06:12:35.125Z,88
2017-09-28T06:13:36.518Z,88
2017-09-28T06:14:37.911Z,96
2017-09-28T06:15:39.302Z,100
2017-09-28T06:16:40.696Z,104
2017-09-28T06:17:42.086Z,112
2017-09-28T06:18:43.478Z,120
2017-09-28T06:19:44.872Z,132
2017-09-28T06:20:46.265Z,144
2017-09-28T06:21:47.659Z,160
2017-09-28T06:22:49.058Z,184
2017-09-28T06:23:50.477Z,212
2017-09-28T06:24:51.875Z,240
2017-09-28T06:25:53.267Z,272
2017-09-28T06:26:54.657Z,300
2017-09-28T06:27:56.050Z,312
2017-09-28T06:28:57.447Z,320
2017-09-28T06:29:58.845Z,320
2017-09-28T06:31:00.249Z,324
2017-09-28T06:32:01.634Z,328
2017-09-28T06:33:03.027Z,336
2017-09-28T06:34:04.422Z,340
2017-09-28T06:35:05.818Z,340
2017-09-28T06:36:07.210Z,344
2017-09-28T06:37:08.606Z,344
2017-09-28T06:38:09.999Z,344
2017-09-28T06:39:11.390Z,336
2017-09-28T06:40:12.812Z,320
2017-09-28T06:41:14.177Z,308
2017-09-28T06:42:15.570Z,296
2017-09-28T06:43:16.979Z,304
2017-09-28T06:44:18.361Z,316
2017-09-28T06:45:19.758Z,348
2017-09-28T06:46:21.148Z,392
2017-09-28T06:47:22.540Z,448
2017-09-28T06:48:23.932Z,512
2017-09-28T06:49:25.326Z,560
2017-09-28T06:50:26.721Z,600
2017-09-28T06:51:28.117Z,644
2017-09-28T06:52:29.537Z,688
2017-09-28T06:53:30.910Z,760
2017-09-28T06:54:32.301Z,896
2017-09-28T06:55:33.695Z,1028
2017-09-28T06:56:35.090Z,1072
2017-09-28T06:57:36.488Z,1092
2017-09-28T06:58:37.879Z,1104
2017-09-28T06:59:39.279Z,1076
2017-09-28T07:00:40.684Z,1032
2017-09-28T07:01:42.071Z,988
2017-09-28T07:02:43.464Z,964
2017-09-28T07:03:44.860Z,964
2017-09-28T07:04:46.260Z,968
2017-09-28T07:05:47.651Z,964
2017-09-28T07:06:49.048Z,944
2017-09-28T07:07:50.454Z,912
2017-09-28T07:08:51.851Z,892
2017-09-28T07:09:53.246Z,896
2017-09-28T07:10:54.638Z,912
2017-09-28T07:11:56.034Z,936
2017-09-28T07:12:57.430Z,940
2017-09-28T07:13:58.825Z,932
2017-09-28T07:15:00.217Z,960
2017-09-28T07:16:01.615Z,1020
2017-09-28T07:17:03.008Z,1100
2017-09-28T07:18:04.405Z,1208
2017-09-28T07:19:05.801Z,1280
2017-09-28T07:20:07.201Z,1324
2017-09-28T07:21:08.596Z,1372
2017-09-28T07:22:10.000Z,1416
2017-09-28T07:23:11.391Z,1408
2017-09-28T07:24:12.789Z,1392
2017-09-28T07:25:14.219Z,1376
2017-09-28T07:26:15.613Z,1388
2017-09-28T07:27:17.008Z,1440
2017-09-28T07:28:18.408Z,1508
2017-09-28T07:29:19.801Z,1592
2017-09-28T07:30:21.205Z,1688
2017-09-28T07:31:22.599Z,1748
2017-09-28T07:32:23.997Z,1816
2017-09-28T07:33:25.396Z,1868
2017-09-28T07:34:26.792Z,1884
2017-09-28T07:35:28.189Z,1892
2017-09-28T07:36:29.582Z,1888
2017-09-28T07:37:30.981Z,1832
2017-09-28T07:38:32.374Z,1768
2017-09-28T07:39:33.773Z,1724
2017-09-28T07:40:35.168Z,1672
2017-09-28T07:41:36.565Z,1640
2017-09-28T07:42:37.962Z,1616
2017-09-28T07:43:39.354Z,1580
2017-09-28T07:44:40.745Z,1536
2017-09-28T07:45:42.138Z,1492
2017-09-28T07:46:43.536Z,1452
2017-09-28T07:47:44.927Z,1424
2017-09-28T07:48:46.329Z,1416
2017-09-28T07:49:47.724Z,1412
2017-09-28T07:50:49.113Z,1420
2017-09-28T07:51:50.508Z,1432
2017-09-28T07:52:51.901Z,1456
2017-09-28T07:53:53.300Z,1488
2017-09-28T07:54:54.693Z,1528
2017-09-28T07:55:56.097Z,1552
2017-09-28T07:56:57.486Z,1588
2017-09-28T07:57:58.880Z,1652
2017-09-28T07:59:00.274Z,1724
2017-09-28T08:00:01.670Z,1808
2017-09-28T08:01:03.068Z,1888
2017-09-28T08:02:04.468Z,1932
2017-09-28T08:03:05.865Z,1952
2017-09-28T08:04:07.264Z,1980
2017-09-28T08:05:08.659Z,1972
2017-09-28T08:06:10.055Z,1984
2017-09-28T08:07:11.451Z,2040
2017-09-28T08:08:12.845Z,2144
2017-09-28T08:09:14.247Z,2284
2017-09-28T08:10:15.646Z,2416
2017-09-28T08:11:17.043Z,2484
2017-09-28T08:12:18.436Z,2532
2017-09-28T08:13:19.832Z,2592
2017-09-28T08:14:21.229Z,2644
2017-09-28T08:15:22.624Z,2672
2017-09-28T08:16:24.022Z,2708
2017-09-28T08:17:25.421Z,2768
2017-09-28T08:18:26.818Z,2840
2017-09-28T08:19:28.217Z,2888
2017-09-28T08:20:29.610Z,2884
2017-09-28T08:21:31.006Z,2868
2017-09-28T08:22:32.406Z,2888
2017-09-28T08:23:33.806Z,2888
2017-09-28T08:24:35.200Z,2776
2017-09-28T08:25:36.598Z,2744
2017-09-28T08:26:37.996Z,2792
2017-09-28T08:27:39.391Z,2816
2017-09-28T08:28:40.785Z,2868
2017-09-28T08:29:42.185Z,2880
2017-09-28T08:30:43.584Z,2900
2017-09-28T08:31:44.982Z,3008
2017-09-28T08:32:46.381Z,3180
2017-09-28T08:33:47.776Z,3464
2017-09-28T08:34:49.176Z,3760
2017-09-28T08:35:50.569Z,4036
2017-09-28T08:36:51.968Z,4328
2017-09-28T08:37:53.368Z,4516
2017-09-28T08:38:54.763Z,4468
2017-09-28T08:39:56.163Z,4304
2017-09-28T08:40:57.556Z,4236
2017-09-28T08:41:58.953Z,4084
2017-09-28T08:43:00.350Z,4180
2017-09-28T08:44:01.750Z,4096
2017-09-28T08:45:03.149Z,4064
2017-09-28T08:46:04.549Z,4136
2017-09-28T08:47:05.948Z,4120
2017-09-28T08:48:07.343Z,4048
2017-09-28T08:49:08.747Z,3844
2017-09-28T08:50:10.140Z,3524
2017-09-28T08:51:11.535Z,3300
2017-09-28T08:52:12.936Z,3188
2017-09-28T08:53:14.348Z,3160
2017-09-28T08:54:15.735Z,3144
2017-09-28T08:55:17.134Z,3140
2017-09-28T08:56:18.528Z,3028
2017-09-28T08:57:19.929Z,2868
2017-09-28T08:58:21.354Z,2672
2017-09-28T08:59:22.722Z,2500
2017-09-28T09:00:24.121Z,2424
2017-09-28T09:01:25.521Z,2404
2017-09-28T09:02:26.959Z,2456
2017-09-28T09:03:28.349Z,2616
2017-09-28T09:04:29.746Z,2820
2017-09-28T09:05:31.144Z,2960
2017-09-28T09:06:32.542Z,2996
2017-09-28T09:07:33.941Z,2976
2017-09-28T09:08:35.340Z,2952
2017-09-28T09:09:36.737Z,3004
2017-09-28T09:10:38.135Z,3036
2017-09-28T09:11:39.531Z,3052
2017-09-28T09:12:40.929Z,3052
2017-09-28T09:13:42.327Z,2956
2017-09-28T09:14:43.726Z,2840
2017-09-28T09:15:45.129Z,2804
2017-09-28T09:16:46.524Z,2760
2017-09-28T09:17:47.920Z,2792
2017-09-28T09:18:49.319Z,2784
2017-09-28T09:19:50.716Z,2708
2017-09-28T09:20:52.114Z,2708
2017-09-28T09:21:53.513Z,2848
2017-09-28T09:22:54.913Z,3064
2017-09-28T09:23:56.311Z,3212
2017-09-28T09:24:57.707Z,3468
2017-09-28T09:25:59.102Z,3480
2017-09-28T09:27:00.503Z,3412
2017-09-28T09:28:01.901Z,3152
2017-09-28T09:29:03.303Z,2996
2017-09-28T09:30:04.704Z,2924
2017-09-28T09:31:06.101Z,2932
2017-09-28T09:32:07.503Z,3044
2017-09-28T09:33:08.895Z,3316
2017-09-28T09:34:10.293Z,3740
2017-09-28T09:35:11.694Z,3996
2017-09-28T09:36:13.092Z,8520
2017-09-28T09:37:14.492Z,3916
2017-09-28T09:38:15.890Z,3552
2017-09-28T09:39:17.288Z,3292
2017-09-28T09:40:18.683Z,3116
2017-09-28T09:41:20.080Z,3000
2017-09-28T09:42:21.478Z,2928
2017-09-28T09:43:22.878Z,2856
2017-09-28T09:44:24.276Z,2732
2017-09-28T09:45:25.675Z,2544
2017-09-28T09:46:27.073Z,2312
2017-09-28T09:47:28.471Z,2152
2017-09-28T09:48:29.864Z,2064
2017-09-28T09:49:31.271Z,1988
2017-09-28T09:50:32.663Z,2012
2017-09-28T09:51:34.059Z,2024
2017-09-28T09:52:35.458Z,2008
2017-09-28T09:53:36.866Z,1984
2017-09-28T09:54:38.249Z,1956
2017-09-28T09:55:39.648Z,1976
2017-09-28T09:56:41.048Z,2016
2017-09-28T09:57:42.444Z,2032
2017-09-28T09:58:43.843Z,2020
2017-09-28T09:59:45.241Z,1988
2017-09-28T10:00:46.638Z,1936
2017-09-28T10:01:48.040Z,1940
2017-09-28T10:02:49.433Z,2024
2017-09-28T10:03:50.837Z,2116
2017-09-28T10:04:52.234Z,2148
2017-09-28T10:05:53.632Z,2180
2017-09-28T10:06:55.029Z,2168
2017-09-28T10:07:56.426Z,2104
2017-09-28T10:08:57.824Z,2008
2017-09-28T10:09:59.220Z,1892
2017-09-28T10:11:00.620Z,1768
2017-09-28T10:12:02.031Z,1680
2017-09-28T10:13:03.426Z,1632
2017-09-28T10:14:04.820Z,1612
2017-09-28T10:15:06.220Z,1584
2017-09-28T10:16:07.619Z,1536
2017-09-28T10:17:09.013Z,1516
2017-09-28T10:18:10.412Z,1528
2017-09-28T10:19:11.808Z,1592
2017-09-28T10:20:13.208Z,1644
2017-09-28T10:21:14.601Z,1672
2017-09-28T10:22:15.996Z,1652
2017-09-28T10:23:17.397Z,1612
2017-09-28T10:24:18.787Z,1552
2017-09-28T10:25:20.187Z,1444
2017-09-28T10:26:21.584Z,1336
2017-09-28T10:27:22.983Z,1240
2017-09-28T10:28:24.380Z,1176
2017-09-28T10:29:25.775Z,1152
2017-09-28T10:30:27.174Z,1160
2017-09-28T10:31:28.571Z,1188
2017-09-28T10:32:29.975Z,1212
2017-09-28T10:33:31.368Z,1220
2017-09-28T10:34:32.767Z,1260
2017-09-28T10:35:34.163Z,1284
2017-09-28T10:36:35.558Z,1248
2017-09-28T10:37:36.956Z,1200
2017-09-28T10:38:38.352Z,1184
2017-09-28T10:39:39.749Z,1240
2017-09-28T10:40:41.146Z,1296
2017-09-28T10:41:42.584Z,1328
2017-09-28T10:42:43.981Z,1352
2017-09-28T10:43:45.378Z,1344
2017-09-28T10:44:46.773Z,1288
2017-09-28T10:45:48.172Z,1220
2017-09-28T10:46:49.572Z,1208
2017-09-28T10:47:50.965Z,1220
2017-09-28T10:48:52.363Z,1264
2017-09-28T10:49:53.756Z,1288
2017-09-28T10:50:55.154Z,1276
2017-09-28T10:51:56.551Z,1264
2017-09-28T10:52:57.945Z,1288
2017-09-28T10:53:59.341Z,1376
2017-09-28T10:55:00.740Z,1460
2017-09-28T10:56:02.137Z,1540
2017-09-28T10:57:03.533Z,1584
2017-09-28T10:58:04.928Z,1592
2017-09-28T10:59:06.351Z,1660
2017-09-28T11:00:07.753Z,1792
2017-09-28T11:01:09.150Z,1920
2017-09-28T11:02:10.544Z,2040
2017-09-28T11:03:11.946Z,2132
2017-09-28T11:04:13.345Z,2240
2017-09-28T11:05:14.747Z,2336
2017-09-28T11:06:16.143Z,2368
2017-09-28T11:07:17.547Z,2652
2017-09-28T11:08:18.945Z,2908
2017-09-28T11:09:20.344Z,3196
2017-09-28T11:10:21.745Z,3396
2017-09-28T11:11:23.142Z,3520
2017-09-28T11:12:24.535Z,3444
2017-09-28T11:13:25.933Z,3244
2017-09-28T11:14:27.329Z,3272
2017-09-28T11:15:28.729Z,3348
2017-09-28T11:16:30.128Z,3640
2017-09-28T11:17:31.529Z,3564
2017-09-28T11:18:32.924Z,3592
2017-09-28T11:19:34.317Z,3644
2017-09-28T11:20:35.716Z,3728
2017-09-28T11:21:37.117Z,3796
2017-09-28T11:22:38.513Z,3768
2017-09-28T11:23:39.914Z,3784
2017-09-28T11:24:41.317Z,3728
2017-09-28T11:25:42.712Z,3684
2017-09-28T11:26:44.108Z,3724
2017-09-28T11:27:45.506Z,3784
2017-09-28T11:28:46.903Z,3784
2017-09-28T11:29:48.301Z,3908
2017-09-28T11:30:49.700Z,4000
2017-09-28T11:31:51.098Z,3864
2017-09-28T11:32:52.496Z,3756
2017-09-28T11:33:53.892Z,3588
2017-09-28T11:34:55.287Z,3484
2017-09-28T11:35:56.685Z,3492
2017-09-28T11:36:58.081Z,3624
2017-09-28T11:37:59.482Z,3672
2017-09-28T11:39:00.882Z,3684
2017-09-28T11:40:02.278Z,3560
2017-09-28T11:41:03.677Z,3556
2017-09-28T11:42:05.076Z,3796
2017-09-28T11:43:06.478Z,4024
2017-09-28T11:44:07.879Z,4292
2017-09-28T11:45:09.275Z,4484
2017-09-28T11:46:10.674Z,4708
2017-09-28T11:47:12.071Z,4964
2017-09-28T11:48:13.467Z,5328
2017-09-28T11:49:14.865Z,5612
2017-09-28T11:50:16.265Z,5780
2017-09-28T11:51:17.662Z,5768
2017-09-28T11:52:19.064Z,5540
2017-09-28T11:53:20.463Z,5260
2017-09-28T11:54:21.859Z,5164
2017-09-28T11:55:23.259Z,5248
2017-09-28T11:56:24.657Z,5612
2017-09-28T11:57:26.055Z,6140
2017-09-28T11:58:27.454Z,6640
2017-09-28T11:59:28.853Z,6936
2017-09-28T12:00:30.252Z,7184
2017-09-28T12:01:31.649Z,7240
2017-09-28T12:02:33.047Z,7724
2017-09-28T12:03:34.442Z,7696
2017-09-28T12:04:35.841Z,7280
2017-09-28T12:05:37.276Z,7456
2017-09-28T12:06:38.638Z,7728
2017-09-28T12:07:40.039Z,7888
2017-09-28T12:08:41.435Z,7968
2017-09-28T12:09:42.835Z,8152
2017-09-28T12:10:44.229Z,8796
2017-09-28T12:11:45.631Z,8380
2017-09-28T12:12:47.030Z,8268
2017-09-28T12:13:48.432Z,8160
2017-09-28T12:14:49.836Z,8100
2017-09-28T12:15:51.237Z,8100
2017-09-28T12:16:52.636Z,8472
2017-09-28T12:17:54.032Z,8332
2017-09-28T12:18:55.452Z,7828
2017-09-28T12:19:56.850Z,7300
2017-09-28T12:20:58.250Z,7016
2017-09-28T12:21:59.652Z,7500
2017-09-28T12:23:01.048Z,8084
2017-09-28T12:24:02.451Z,8348
2017-09-28T12:25:03.851Z,7812
2017-09-28T12:26:05.248Z,7660
2017-09-28T12:27:06.649Z,7816
2017-09-28T12:28:08.048Z,8032
2017-09-28T12:29:09.451Z,8340
2017-09-28T12:30:10.849Z,8412
2017-09-28T12:31:12.249Z,8428
2017-09-28T12:32:13.650Z,8496
2017-09-28T12:33:15.051Z,8596
2017-09-28T12:34:16.483Z,9160
2017-09-28T12:35:17.851Z,9252
2017-09-28T12:36:19.250Z,9208
2017-09-28T12:37:20.649Z,8996
2017-09-28T12:38:22.046Z,8912
2017-09-28T12:39:23.445Z,8784
2017-09-28T12:40:24.847Z,8888
2017-09-28T12:41:26.254Z,10192
2017-09-28T12:42:27.649Z,9468
2017-09-28T12:43:29.051Z,9896
2017-09-28T12:44:30.448Z,9372
2017-09-28T12:45:31.845Z,8872
2017-09-28T12:46:33.247Z,8688
2017-09-28T12:47:34.654Z,9136
2017-09-28T12:48:36.051Z,9132
2017-09-28T12:49:37.450Z,9092
2017-09-28T12:50:38.854Z,10076
2017-09-28T12:51:40.253Z,9012
2017-09-28T12:52:41.656Z,8244
2017-09-28T12:53:43.054Z,11860
2017-09-28T12:54:44.453Z,10224
2017-09-28T12:55:45.855Z,8572
2017-09-28T12:56:47.257Z,11340
2017-09-28T12:57:48.659Z,13840
2017-09-28T12:58:50.055Z,12060
2017-09-28T12:59:51.456Z,13400
2017-09-28T13:00:52.856Z,12176
2017-09-28T13:01:54.258Z,9660
2017-09-28T13:02:55.659Z,10216
2017-09-28T13:03:57.061Z,7092
2017-09-28T13:04:58.461Z,8064
2017-09-28T13:05:59.864Z,10672
2017-09-28T13:07:01.264Z,11072
2017-09-28T13:08:02.666Z,7000
2017-09-28T13:09:04.066Z,3580
2017-09-28T13:10:05.473Z,3276
2017-09-28T13:11:06.869Z,3724
2017-09-28T13:12:08.271Z,3580
2017-09-28T13:13:09.673Z,3216
2017-09-28T13:14:11.072Z,3168
2017-09-28T13:15:12.473Z,2972
2017-09-28T13:16:13.875Z,2252
2017-09-28T13:17:15.287Z,2016
2017-09-28T13:18:16.686Z,2048
2017-09-28T13:19:18.089Z,1748
2017-09-28T13:20:19.488Z,1628
2017-09-28T13:21:20.887Z,1540
2017-09-28T13:22:22.285Z,1644
2017-09-28T13:23:23.685Z,1720
2017-09-28T13:24:25.084Z,1576
2017-09-28T13:25:26.488Z,1616
2017-09-28T13:26:27.886Z,1716
2017-09-28T13:27:29.285Z,1760
2017-09-28T13:28:30.684Z,1740
2017-09-28T13:29:32.091Z,1784
2017-09-28T13:30:33.490Z,1912
2017-09-28T13:31:34.892Z,2208
2017-09-28T13:32:36.293Z,2352
2017-09-28T13:33:37.695Z,2668
2017-09-28T13:34:39.093Z,2272
2017-09-28T13:35:40.491Z,2384
2017-09-28T13:36:41.891Z,2472
2017-09-28T13:37:43.289Z,2516
2017-09-28T13:38:44.690Z,2832
2017-09-28T13:39:46.090Z,3572
2017-09-28T13:40:47.492Z,4736
2017-09-28T13:41:48.892Z,4420
2017-09-28T13:42:50.291Z,3816
2017-09-28T13:43:51.687Z,3836
2017-09-28T13:44:53.089Z,3864
2017-09-28T13:45:54.492Z,2972
2017-09-28T13:46:55.894Z,2600
2017-09-28T13:47:57.296Z,2228
2017-09-28T13:48:58.692Z,2208
2017-09-28T13:50:00.092Z,1964
2017-09-28T13:51:01.490Z,1848
2017-09-28T13:52:02.887Z,1568
2017-09-28T13:53:04.288Z,1444
2017-09-28T13:54:05.689Z,1528
2017-09-28T13:55:07.087Z,1760
2017-09-28T13:56:08.486Z,2088
2017-09-28T13:57:09.886Z,2440
2017-09-28T13:58:11.287Z,2648
2017-09-28T13:59:12.686Z,2860
2017-09-28T14:00:14.088Z,2748
2017-09-28T14:01:15.488Z,2544
2017-09-28T14:02:16.889Z,2476
2017-09-28T14:03:18.285Z,2436
2017-09-28T14:04:19.683Z,2472
2017-09-28T14:05:21.082Z,2652
2017-09-28T14:06:22.481Z,2832
2017-09-28T14:07:23.882Z,2960
2017-09-28T14:08:25.283Z,2824
2017-09-28T14:09:26.686Z,2664
2017-09-28T14:10:28.080Z,2548
2017-09-28T14:11:29.482Z,2444
2017-09-28T14:12:30.882Z,2328